sensor_id;sensor_type;location;lat;lon;timestamp;P1;durP1;ratioP1;P2;durP2;ratioP2
37299;SDS011;23184;51.902;12.836;2024-02-16T00:00:00;11.80;;;7.03;;
37299;SDS011;23184;51.902;12.836;2024-02-16T00:02:26;14.55;;;7.70;;
37299;SDS011;23184;51.902;12.836;2024-02-16T00:04:51;12.35;;;8.15;;
37299;SDS011;23184;51.902;12.836;2024-02-16T00:07:17;12.43;;;8.38;;
37299;SDS011;23184;51.902;12.836;2024-02-16T00:09:42;13.93;;;8.68;;
37299;SDS011;23184;51.902;12.836;2024-02-16T00:12:08;20.15;;;10.07;;
37299;SDS011;23184;51.902;12.836;2024-02-16T00:14:33;15.10;;;8.82;;
37299;SDS011;23184;51.902;12.836;2024-02-16T00:16:59;16.42;;;9.07;;
37299;SDS011;23184;51.902;12.836;2024-02-16T00:19:24;19.83;;;9.88;;
37299;SDS011;23184;51.902;12.836;2024-02-16T00:21:50;17.80;;;9.38;;
37299;SDS011;23184;51.902;12.836;2024-02-16T00:24:16;18.75;;;10.07;;
37299;SDS011;23184;51.902;12.836;2024-02-16T00:26:41;21.05;;;11.70;;
37299;SDS011;23184;51.902;12.836;2024-02-16T00:29:08;20.95;;;10.50;;
37299;SDS011;23184;51.902;12.836;2024-02-16T00:31:33;19.40;;;11.05;;
37299;SDS011;23184;51.902;12.836;2024-02-16T00:33:59;18.83;;;11.35;;
37299;SDS011;23184;51.902;12.836;2024-02-16T00:36:26;20.80;;;12.35;;
37299;SDS011;23184;51.902;12.836;2024-02-16T00:38:52;21.30;;;12.52;;
37299;SDS011;23184;51.902;12.836;2024-02-16T00:41:18;19.60;;;12.65;;
37299;SDS011;23184;51.902;12.836;2024-02-16T00:43:44;21.70;;;12.63;;
37299;SDS011;23184;51.902;12.836;2024-02-16T00:46:10;24.08;;;14.05;;
37299;SDS011;23184;51.902;12.836;2024-02-16T00:48:36;22.02;;;12.93;;
37299;SDS011;23184;51.902;12.836;2024-02-16T00:51:01;27.02;;;14.15;;
37299;SDS011;23184;51.902;12.836;2024-02-16T00:53:27;20.00;;;13.38;;
37299;SDS011;23184;51.902;12.836;2024-02-16T00:55:52;25.80;;;14.65;;
37299;SDS011;23184;51.902;12.836;2024-02-16T00:58:18;23.98;;;14.10;;
37299;SDS011;23184;51.902;12.836;2024-02-16T01:00:44;32.55;;;14.10;;
37299;SDS011;23184;51.902;12.836;2024-02-16T01:03:10;23.77;;;13.13;;
37299;SDS011;23184;51.902;12.836;2024-02-16T01:05:37;28.10;;;15.82;;
37299;SDS011;23184;51.902;12.836;2024-02-16T01:08:05;22.92;;;14.93;;
37299;SDS011;23184;51.902;12.836;2024-02-16T01:10:30;27.58;;;15.02;;
37299;SDS011;23184;51.902;12.836;2024-02-16T01:12:56;25.33;;;14.30;;
37299;SDS011;23184;51.902;12.836;2024-02-16T01:15:21;24.58;;;14.75;;
37299;SDS011;23184;51.902;12.836;2024-02-16T01:17:47;30.10;;;16.20;;
37299;SDS011;23184;51.902;12.836;2024-02-16T01:20:12;25.67;;;15.07;;
37299;SDS011;23184;51.902;12.836;2024-02-16T01:22:39;23.48;;;14.70;;
37299;SDS011;23184;51.902;12.836;2024-02-16T01:25:05;30.13;;;15.63;;
37299;SDS011;23184;51.902;12.836;2024-02-16T01:27:32;25.25;;;15.23;;
37299;SDS011;23184;51.902;12.836;2024-02-16T01:29:57;28.95;;;16.08;;
37299;SDS011;23184;51.902;12.836;2024-02-16T01:32:23;30.88;;;16.52;;
37299;SDS011;23184;51.902;12.836;2024-02-16T01:34:48;24.73;;;14.68;;
37299;SDS011;23184;51.902;12.836;2024-02-16T01:37:14;28.67;;;15.52;;
37299;SDS011;23184;51.902;12.836;2024-02-16T01:39:40;31.83;;;15.93;;
37299;SDS011;23184;51.902;12.836;2024-02-16T01:42:07;25.80;;;16.38;;
37299;SDS011;23184;51.902;12.836;2024-02-16T01:44:32;30.10;;;17.00;;
37299;SDS011;23184;51.902;12.836;2024-02-16T01:46:58;27.60;;;17.48;;
37299;SDS011;23184;51.902;12.836;2024-02-16T01:49:23;28.00;;;16.75;;
37299;SDS011;23184;51.902;12.836;2024-02-16T01:51:49;29.20;;;16.30;;
37299;SDS011;23184;51.902;12.836;2024-02-16T01:54:15;30.85;;;17.45;;
37299;SDS011;23184;51.902;12.836;2024-02-16T01:56:42;28.67;;;16.77;;
37299;SDS011;23184;51.902;12.836;2024-02-16T01:59:09;28.42;;;17.65;;
37299;SDS011;23184;51.902;12.836;2024-02-16T02:01:34;25.67;;;16.50;;
37299;SDS011;23184;51.902;12.836;2024-02-16T02:04:00;32.83;;;16.95;;
37299;SDS011;23184;51.902;12.836;2024-02-16T02:06:26;27.55;;;17.40;;
37299;SDS011;23184;51.902;12.836;2024-02-16T02:08:52;27.85;;;17.30;;
37299;SDS011;23184;51.902;12.836;2024-02-16T02:11:17;28.33;;;16.63;;
37299;SDS011;23184;51.902;12.836;2024-02-16T02:13:43;27.50;;;16.40;;
37299;SDS011;23184;51.902;12.836;2024-02-16T02:16:08;31.88;;;17.98;;
37299;SDS011;23184;51.902;12.836;2024-02-16T02:18:35;30.13;;;16.88;;
37299;SDS011;23184;51.902;12.836;2024-02-16T02:21:00;35.53;;;17.95;;
37299;SDS011;23184;51.902;12.836;2024-02-16T02:23:26;30.38;;;17.52;;
37299;SDS011;23184;51.902;12.836;2024-02-16T02:25:52;29.33;;;18.08;;
37299;SDS011;23184;51.902;12.836;2024-02-16T02:28:18;28.88;;;17.77;;
37299;SDS011;23184;51.902;12.836;2024-02-16T02:30:44;31.63;;;18.10;;
37299;SDS011;23184;51.902;12.836;2024-02-16T02:33:11;30.88;;;17.73;;
37299;SDS011;23184;51.902;12.836;2024-02-16T02:35:38;34.20;;;18.67;;
37299;SDS011;23184;51.902;12.836;2024-02-16T02:38:03;27.80;;;16.85;;
37299;SDS011;23184;51.902;12.836;2024-02-16T02:40:30;32.78;;;17.38;;
37299;SDS011;23184;51.902;12.836;2024-02-16T02:42:56;31.10;;;17.17;;
37299;SDS011;23184;51.902;12.836;2024-02-16T02:45:22;35.10;;;18.13;;
37299;SDS011;23184;51.902;12.836;2024-02-16T02:47:48;33.75;;;19.08;;
37299;SDS011;23184;51.902;12.836;2024-02-16T02:50:13;30.75;;;18.48;;
37299;SDS011;23184;51.902;12.836;2024-02-16T02:52:39;35.22;;;17.92;;
37299;SDS011;23184;51.902;12.836;2024-02-16T02:55:04;35.40;;;18.13;;
37299;SDS011;23184;51.902;12.836;2024-02-16T02:57:30;32.63;;;17.50;;
37299;SDS011;23184;51.902;12.836;2024-02-16T03:00:04;28.23;;;17.60;;
37299;SDS011;23184;51.902;12.836;2024-02-16T03:02:41;33.92;;;17.05;;
37299;SDS011;23184;51.902;12.836;2024-02-16T03:05:08;28.73;;;17.60;;
37299;SDS011;23184;51.902;12.836;2024-02-16T03:07:34;31.30;;;18.42;;
37299;SDS011;23184;51.902;12.836;2024-02-16T03:10:18;36.00;;;16.85;;
37299;SDS011;23184;51.902;12.836;2024-02-16T03:12:47;27.42;;;16.63;;
37299;SDS011;23184;51.902;12.836;2024-02-16T03:15:14;30.58;;;17.40;;
37299;SDS011;23184;51.902;12.836;2024-02-16T03:17:40;28.00;;;16.10;;
37299;SDS011;23184;51.902;12.836;2024-02-16T03:20:06;32.53;;;16.70;;
37299;SDS011;23184;51.902;12.836;2024-02-16T03:22:33;31.10;;;16.17;;
37299;SDS011;23184;51.902;12.836;2024-02-16T03:24:58;30.63;;;17.02;;
37299;SDS011;23184;51.902;12.836;2024-02-16T03:27:24;26.83;;;15.40;;
37299;SDS011;23184;51.902;12.836;2024-02-16T03:29:49;25.23;;;15.10;;
37299;SDS011;23184;51.902;12.836;2024-02-16T03:32:15;28.58;;;16.17;;
37299;SDS011;23184;51.902;12.836;2024-02-16T03:34:40;24.98;;;15.88;;
37299;SDS011;23184;51.902;12.836;2024-02-16T03:37:06;27.55;;;15.52;;
37299;SDS011;23184;51.902;12.836;2024-02-16T03:39:31;26.58;;;14.95;;
37299;SDS011;23184;51.902;12.836;2024-02-16T03:41:56;30.02;;;15.55;;
37299;SDS011;23184;51.902;12.836;2024-02-16T03:44:22;27.40;;;14.48;;
37299;SDS011;23184;51.902;12.836;2024-02-16T03:46:47;28.45;;;16.45;;
37299;SDS011;23184;51.902;12.836;2024-02-16T03:49:13;26.13;;;14.40;;
37299;SDS011;23184;51.902;12.836;2024-02-16T03:51:39;30.88;;;14.02;;
37299;SDS011;23184;51.902;12.836;2024-02-16T03:54:04;24.85;;;13.73;;
37299;SDS011;23184;51.902;12.836;2024-02-16T03:56:30;27.92;;;15.13;;
37299;SDS011;23184;51.902;12.836;2024-02-16T03:58:55;22.83;;;14.07;;
37299;SDS011;23184;51.902;12.836;2024-02-16T04:01:21;27.20;;;14.90;;
37299;SDS011;23184;51.902;12.836;2024-02-16T04:03:47;25.30;;;13.90;;
37299;SDS011;23184;51.902;12.836;2024-02-16T04:06:12;22.17;;;13.90;;
37299;SDS011;23184;51.902;12.836;2024-02-16T04:08:38;25.38;;;15.13;;
37299;SDS011;23184;51.902;12.836;2024-02-16T04:11:04;21.25;;;12.95;;
37299;SDS011;23184;51.902;12.836;2024-02-16T04:13:29;23.48;;;12.85;;
37299;SDS011;23184;51.902;12.836;2024-02-16T04:15:55;22.75;;;12.95;;
37299;SDS011;23184;51.902;12.836;2024-02-16T04:18:20;22.05;;;13.50;;
37299;SDS011;23184;51.902;12.836;2024-02-16T04:20:46;22.58;;;12.98;;
37299;SDS011;23184;51.902;12.836;2024-02-16T04:23:11;20.90;;;14.65;;
37299;SDS011;23184;51.902;12.836;2024-02-16T04:25:37;25.83;;;14.02;;
37299;SDS011;23184;51.902;12.836;2024-02-16T04:28:03;26.42;;;13.75;;
37299;SDS011;23184;51.902;12.836;2024-02-16T04:30:29;24.13;;;13.63;;
37299;SDS011;23184;51.902;12.836;2024-02-16T04:32:55;23.17;;;13.35;;
37299;SDS011;23184;51.902;12.836;2024-02-16T04:35:20;26.95;;;13.48;;
37299;SDS011;23184;51.902;12.836;2024-02-16T04:37:46;21.70;;;13.02;;
37299;SDS011;23184;51.902;12.836;2024-02-16T04:40:11;24.52;;;13.48;;
37299;SDS011;23184;51.902;12.836;2024-02-16T04:42:37;27.50;;;13.98;;
37299;SDS011;23184;51.902;12.836;2024-02-16T04:45:05;26.08;;;13.38;;
37299;SDS011;23184;51.902;12.836;2024-02-16T04:47:31;22.08;;;13.70;;
37299;SDS011;23184;51.902;12.836;2024-02-16T04:49:56;24.63;;;13.77;;
37299;SDS011;23184;51.902;12.836;2024-02-16T04:52:22;22.73;;;13.43;;
37299;SDS011;23184;51.902;12.836;2024-02-16T04:54:47;25.02;;;13.07;;
37299;SDS011;23184;51.902;12.836;2024-02-16T04:57:13;24.08;;;13.50;;
37299;SDS011;23184;51.902;12.836;2024-02-16T04:59:38;22.35;;;12.23;;
37299;SDS011;23184;51.902;12.836;2024-02-16T05:02:04;19.23;;;11.98;;
37299;SDS011;23184;51.902;12.836;2024-02-16T05:04:31;24.15;;;13.68;;
37299;SDS011;23184;51.902;12.836;2024-02-16T05:06:57;22.73;;;12.98;;
37299;SDS011;23184;51.902;12.836;2024-02-16T05:09:23;22.65;;;13.32;;
37299;SDS011;23184;51.902;12.836;2024-02-16T05:11:51;23.05;;;13.00;;
37299;SDS011;23184;51.902;12.836;2024-02-16T05:14:17;31.27;;;13.93;;
37299;SDS011;23184;51.902;12.836;2024-02-16T05:16:45;24.48;;;13.07;;
37299;SDS011;23184;51.902;12.836;2024-02-16T05:19:11;27.00;;;13.75;;
37299;SDS011;23184;51.902;12.836;2024-02-16T05:21:37;24.85;;;13.68;;
37299;SDS011;23184;51.902;12.836;2024-02-16T05:24:02;22.33;;;13.27;;
37299;SDS011;23184;51.902;12.836;2024-02-16T05:26:28;22.13;;;13.00;;
37299;SDS011;23184;51.902;12.836;2024-02-16T05:28:54;25.90;;;13.85;;
37299;SDS011;23184;51.902;12.836;2024-02-16T05:31:19;26.52;;;13.40;;
37299;SDS011;23184;51.902;12.836;2024-02-16T05:33:46;30.55;;;14.02;;
37299;SDS011;23184;51.902;12.836;2024-02-16T05:36:16;27.90;;;14.25;;
37299;SDS011;23184;51.902;12.836;2024-02-16T05:38:48;38.22;;;14.73;;
37299;SDS011;23184;51.902;12.836;2024-02-16T05:41:15;31.02;;;15.07;;
37299;SDS011;23184;51.902;12.836;2024-02-16T05:43:42;28.67;;;14.82;;
37299;SDS011;23184;51.902;12.836;2024-02-16T05:46:12;25.42;;;13.82;;
37299;SDS011;23184;51.902;12.836;2024-02-16T05:48:40;37.38;;;16.23;;
37299;SDS011;23184;51.902;12.836;2024-02-16T05:51:06;25.77;;;14.63;;
37299;SDS011;23184;51.902;12.836;2024-02-16T05:53:32;33.00;;;14.80;;
37299;SDS011;23184;51.902;12.836;2024-02-16T05:55:58;28.73;;;15.45;;
37299;SDS011;23184;51.902;12.836;2024-02-16T05:58:24;30.40;;;15.93;;
37299;SDS011;23184;51.902;12.836;2024-02-16T06:00:50;26.95;;;15.18;;
37299;SDS011;23184;51.902;12.836;2024-02-16T06:03:15;28.83;;;14.95;;
37299;SDS011;23184;51.902;12.836;2024-02-16T06:05:41;27.85;;;15.32;;
37299;SDS011;23184;51.902;12.836;2024-02-16T06:08:09;30.08;;;14.57;;
37299;SDS011;23184;51.902;12.836;2024-02-16T06:10:35;29.90;;;15.13;;
37299;SDS011;23184;51.902;12.836;2024-02-16T06:13:00;25.23;;;13.73;;
37299;SDS011;23184;51.902;12.836;2024-02-16T06:15:26;29.55;;;14.15;;
37299;SDS011;23184;51.902;12.836;2024-02-16T06:17:51;25.85;;;15.15;;
37299;SDS011;23184;51.902;12.836;2024-02-16T06:20:17;23.98;;;13.00;;
37299;SDS011;23184;51.902;12.836;2024-02-16T06:22:43;29.48;;;14.32;;
37299;SDS011;23184;51.902;12.836;2024-02-16T06:25:09;24.13;;;13.88;;
37299;SDS011;23184;51.902;12.836;2024-02-16T06:27:35;26.08;;;12.50;;
37299;SDS011;23184;51.902;12.836;2024-02-16T06:30:01;23.55;;;13.10;;
37299;SDS011;23184;51.902;12.836;2024-02-16T06:32:29;25.75;;;13.77;;
37299;SDS011;23184;51.902;12.836;2024-02-16T06:34:56;24.15;;;14.30;;
37299;SDS011;23184;51.902;12.836;2024-02-16T06:37:21;23.75;;;13.15;;
37299;SDS011;23184;51.902;12.836;2024-02-16T06:39:47;23.40;;;12.57;;
37299;SDS011;23184;51.902;12.836;2024-02-16T06:42:12;24.02;;;11.75;;
37299;SDS011;23184;51.902;12.836;2024-02-16T06:44:38;23.85;;;11.77;;
37299;SDS011;23184;51.902;12.836;2024-02-16T06:47:04;27.63;;;13.20;;
37299;SDS011;23184;51.902;12.836;2024-02-16T06:49:30;23.08;;;12.45;;
37299;SDS011;23184;51.902;12.836;2024-02-16T06:51:56;21.50;;;11.90;;
37299;SDS011;23184;51.902;12.836;2024-02-16T06:54:21;17.67;;;10.30;;
37299;SDS011;23184;51.902;12.836;2024-02-16T06:56:47;18.48;;;11.02;;
37299;SDS011;23184;51.902;12.836;2024-02-16T06:59:13;20.27;;;11.60;;
37299;SDS011;23184;51.902;12.836;2024-02-16T07:01:38;20.63;;;11.52;;
37299;SDS011;23184;51.902;12.836;2024-02-16T07:04:04;17.65;;;10.43;;
37299;SDS011;23184;51.902;12.836;2024-02-16T07:06:30;19.30;;;10.02;;
37299;SDS011;23184;51.902;12.836;2024-02-16T07:08:56;22.73;;;10.15;;
37299;SDS011;23184;51.902;12.836;2024-02-16T07:11:21;17.05;;;9.80;;
37299;SDS011;23184;51.902;12.836;2024-02-16T07:13:47;18.30;;;10.30;;
37299;SDS011;23184;51.902;12.836;2024-02-16T07:16:12;17.10;;;9.82;;
37299;SDS011;23184;51.902;12.836;2024-02-16T07:18:38;18.67;;;10.43;;
37299;SDS011;23184;51.902;12.836;2024-02-16T07:21:03;15.55;;;9.50;;
37299;SDS011;23184;51.902;12.836;2024-02-16T07:23:29;14.77;;;8.82;;
37299;SDS011;23184;51.902;12.836;2024-02-16T07:25:55;20.02;;;9.55;;
37299;SDS011;23184;51.902;12.836;2024-02-16T07:28:24;15.70;;;8.80;;
37299;SDS011;23184;51.902;12.836;2024-02-16T07:30:52;14.55;;;8.35;;
37299;SDS011;23184;51.902;12.836;2024-02-16T07:33:18;13.43;;;8.10;;
37299;SDS011;23184;51.902;12.836;2024-02-16T07:35:43;17.90;;;8.85;;
37299;SDS011;23184;51.902;12.836;2024-02-16T07:38:09;15.73;;;8.23;;
37299;SDS011;23184;51.902;12.836;2024-02-16T07:40:35;14.30;;;7.90;;
37299;SDS011;23184;51.902;12.836;2024-02-16T07:43:01;13.52;;;8.25;;
37299;SDS011;23184;51.902;12.836;2024-02-16T07:45:28;13.43;;;7.70;;
37299;SDS011;23184;51.902;12.836;2024-02-16T07:47:53;19.20;;;10.77;;
37299;SDS011;23184;51.902;12.836;2024-02-16T07:50:22;16.90;;;9.52;;
37299;SDS011;23184;51.902;12.836;2024-02-16T07:52:48;12.40;;;7.85;;
37299;SDS011;23184;51.902;12.836;2024-02-16T07:55:14;80.60;;;35.33;;
37299;SDS011;23184;51.902;12.836;2024-02-16T07:57:43;83.53;;;39.22;;
37299;SDS011;23184;51.902;12.836;2024-02-16T08:00:08;97.55;;;43.92;;
37299;SDS011;23184;51.902;12.836;2024-02-16T08:02:35;60.58;;;28.58;;
37299;SDS011;23184;51.902;12.836;2024-02-16T08:05:01;40.65;;;22.33;;
37299;SDS011;23184;51.902;12.836;2024-02-16T08:07:27;63.50;;;34.47;;
37299;SDS011;23184;51.902;12.836;2024-02-16T08:09:53;25.92;;;15.18;;
37299;SDS011;23184;51.902;12.836;2024-02-16T08:12:18;24.95;;;13.57;;
37299;SDS011;23184;51.902;12.836;2024-02-16T08:14:44;14.85;;;10.35;;
37299;SDS011;23184;51.902;12.836;2024-02-16T08:17:11;14.68;;;10.05;;
37299;SDS011;23184;51.902;12.836;2024-02-16T08:19:36;10.60;;;7.00;;
37299;SDS011;23184;51.902;12.836;2024-02-16T08:22:06;10.45;;;6.70;;
37299;SDS011;23184;51.902;12.836;2024-02-16T08:24:33;11.25;;;7.15;;
37299;SDS011;23184;51.902;12.836;2024-02-16T08:27:02;11.25;;;6.80;;
37299;SDS011;23184;51.902;12.836;2024-02-16T08:29:29;8.73;;;5.75;;
37299;SDS011;23184;51.902;12.836;2024-02-16T08:31:55;12.80;;;6.63;;
37299;SDS011;23184;51.902;12.836;2024-02-16T08:34:21;11.48;;;7.07;;
37299;SDS011;23184;51.902;12.836;2024-02-16T08:36:49;13.48;;;7.18;;
37299;SDS011;23184;51.902;12.836;2024-02-16T08:39:15;10.63;;;6.15;;
37299;SDS011;23184;51.902;12.836;2024-02-16T08:41:42;11.60;;;6.00;;
37299;SDS011;23184;51.902;12.836;2024-02-16T08:44:13;9.10;;;5.82;;
37299;SDS011;23184;51.902;12.836;2024-02-16T08:46:38;8.63;;;5.13;;
37299;SDS011;23184;51.902;12.836;2024-02-16T08:49:07;9.98;;;5.53;;
37299;SDS011;23184;51.902;12.836;2024-02-16T08:51:34;12.45;;;5.95;;
37299;SDS011;23184;51.902;12.836;2024-02-16T08:54:00;10.48;;;5.93;;
37299;SDS011;23184;51.902;12.836;2024-02-16T08:56:29;9.55;;;5.32;;
37299;SDS011;23184;51.902;12.836;2024-02-16T08:58:55;8.45;;;4.50;;
37299;SDS011;23184;51.902;12.836;2024-02-16T09:01:33;7.97;;;5.05;;
37299;SDS011;23184;51.902;12.836;2024-02-16T09:04:00;9.23;;;4.85;;
37299;SDS011;23184;51.902;12.836;2024-02-16T09:06:25;7.13;;;4.38;;
37299;SDS011;23184;51.902;12.836;2024-02-16T09:08:51;8.15;;;5.07;;
37299;SDS011;23184;51.902;12.836;2024-02-16T09:11:17;8.52;;;4.63;;
37299;SDS011;23184;51.902;12.836;2024-02-16T09:13:42;7.20;;;4.55;;
37299;SDS011;23184;51.902;12.836;2024-02-16T09:16:08;9.77;;;4.72;;
37299;SDS011;23184;51.902;12.836;2024-02-16T09:18:34;8.75;;;4.72;;
37299;SDS011;23184;51.902;12.836;2024-02-16T09:21:01;8.30;;;4.63;;
37299;SDS011;23184;51.902;12.836;2024-02-16T09:23:27;8.95;;;4.75;;
37299;SDS011;23184;51.902;12.836;2024-02-16T09:25:52;8.90;;;5.00;;
37299;SDS011;23184;51.902;12.836;2024-02-16T09:28:19;7.57;;;4.82;;
37299;SDS011;23184;51.902;12.836;2024-02-16T09:30:45;8.23;;;4.53;;
37299;SDS011;23184;51.902;12.836;2024-02-16T09:33:11;8.98;;;5.53;;
37299;SDS011;23184;51.902;12.836;2024-02-16T09:35:37;7.45;;;4.70;;
37299;SDS011;23184;51.902;12.836;2024-02-16T09:38:03;11.10;;;5.47;;
37299;SDS011;23184;51.902;12.836;2024-02-16T09:40:28;9.40;;;4.85;;
37299;SDS011;23184;51.902;12.836;2024-02-16T09:42:54;9.90;;;4.78;;
37299;SDS011;23184;51.902;12.836;2024-02-16T09:45:20;9.80;;;5.18;;
37299;SDS011;23184;51.902;12.836;2024-02-16T09:47:46;8.20;;;5.55;;
37299;SDS011;23184;51.902;12.836;2024-02-16T09:50:13;9.35;;;5.35;;
37299;SDS011;23184;51.902;12.836;2024-02-16T09:52:40;11.88;;;7.07;;
37299;SDS011;23184;51.902;12.836;2024-02-16T09:55:15;11.73;;;5.90;;
37299;SDS011;23184;51.902;12.836;2024-02-16T09:57:42;10.00;;;5.80;;
37299;SDS011;23184;51.902;12.836;2024-02-16T10:00:11;8.27;;;5.30;;
37299;SDS011;23184;51.902;12.836;2024-02-16T10:02:43;8.45;;;4.68;;
37299;SDS011;23184;51.902;12.836;2024-02-16T10:05:13;7.53;;;4.30;;
37299;SDS011;23184;51.902;12.836;2024-02-16T10:07:40;8.93;;;5.00;;
37299;SDS011;23184;51.902;12.836;2024-02-16T10:10:06;7.25;;;4.40;;
37299;SDS011;23184;51.902;12.836;2024-02-16T10:12:44;6.28;;;4.50;;
37299;SDS011;23184;51.902;12.836;2024-02-16T10:15:10;8.70;;;4.88;;
37299;SDS011;23184;51.902;12.836;2024-02-16T10:17:36;9.43;;;4.75;;
37299;SDS011;23184;51.902;12.836;2024-02-16T10:20:01;6.22;;;4.35;;
37299;SDS011;23184;51.902;12.836;2024-02-16T10:22:31;10.40;;;5.75;;
37299;SDS011;23184;51.902;12.836;2024-02-16T10:25:06;9.90;;;5.15;;
37299;SDS011;23184;51.902;12.836;2024-02-16T10:27:36;26.40;;;5.32;;
37299;SDS011;23184;51.902;12.836;2024-02-16T10:30:02;9.32;;;5.85;;
37299;SDS011;23184;51.902;12.836;2024-02-16T10:32:34;8.85;;;5.20;;
37299;SDS011;23184;51.902;12.836;2024-02-16T10:35:02;9.15;;;5.72;;
37299;SDS011;23184;51.902;12.836;2024-02-16T10:37:30;9.05;;;5.72;;
37299;SDS011;23184;51.902;12.836;2024-02-16T10:39:56;12.88;;;6.28;;
37299;SDS011;23184;51.902;12.836;2024-02-16T10:42:22;9.75;;;5.80;;
37299;SDS011;23184;51.902;12.836;2024-02-16T10:44:51;11.13;;;6.03;;
37299;SDS011;23184;51.902;12.836;2024-02-16T10:47:17;8.85;;;4.57;;
37299;SDS011;23184;51.902;12.836;2024-02-16T10:49:43;10.95;;;4.82;;
37299;SDS011;23184;51.902;12.836;2024-02-16T10:52:09;7.72;;;3.72;;
37299;SDS011;23184;51.902;12.836;2024-02-16T10:54:37;6.63;;;3.30;;
37299;SDS011;23184;51.902;12.836;2024-02-16T10:57:07;6.22;;;3.00;;
37299;SDS011;23184;51.902;12.836;2024-02-16T10:59:42;7.25;;;4.10;;
37299;SDS011;23184;51.902;12.836;2024-02-16T11:02:09;7.22;;;3.58;;
37299;SDS011;23184;51.902;12.836;2024-02-16T11:04:36;9.00;;;4.15;;
37299;SDS011;23184;51.902;12.836;2024-02-16T11:07:11;5.90;;;3.28;;
37299;SDS011;23184;51.902;12.836;2024-02-16T11:09:40;6.35;;;3.15;;
37299;SDS011;23184;51.902;12.836;2024-02-16T11:12:06;5.80;;;2.33;;
37299;SDS011;23184;51.902;12.836;2024-02-16T11:14:40;5.32;;;1.88;;
37299;SDS011;23184;51.902;12.836;2024-02-16T11:17:08;4.90;;;2.10;;
37299;SDS011;23184;51.902;12.836;2024-02-16T11:19:41;3.50;;;2.10;;
37299;SDS011;23184;51.902;12.836;2024-02-16T11:22:07;2.30;;;1.73;;
37299;SDS011;23184;51.902;12.836;2024-02-16T11:24:34;2.88;;;1.95;;
37299;SDS011;23184;51.902;12.836;2024-02-16T11:27:03;5.07;;;2.25;;
37299;SDS011;23184;51.902;12.836;2024-02-16T11:29:36;3.83;;;2.10;;
37299;SDS011;23184;51.902;12.836;2024-02-16T11:32:05;6.85;;;2.25;;
37299;SDS011;23184;51.902;12.836;2024-02-16T11:34:32;7.78;;;2.33;;
37299;SDS011;23184;51.902;12.836;2024-02-16T11:36:59;8.50;;;2.28;;
37299;SDS011;23184;51.902;12.836;2024-02-16T11:39:26;4.85;;;2.20;;
37299;SDS011;23184;51.902;12.836;2024-02-16T11:41:58;3.33;;;1.90;;
37299;SDS011;23184;51.902;12.836;2024-02-16T11:44:28;3.60;;;2.00;;
37299;SDS011;23184;51.902;12.836;2024-02-16T11:46:56;4.50;;;1.90;;
37299;SDS011;23184;51.902;12.836;2024-02-16T11:49:22;4.55;;;2.20;;
37299;SDS011;23184;51.902;12.836;2024-02-16T11:51:48;4.68;;;1.90;;
37299;SDS011;23184;51.902;12.836;2024-02-16T11:54:13;4.00;;;2.10;;
37299;SDS011;23184;51.902;12.836;2024-02-16T11:56:40;3.95;;;1.92;;
37299;SDS011;23184;51.902;12.836;2024-02-16T11:59:16;3.83;;;2.17;;
37299;SDS011;23184;51.902;12.836;2024-02-16T12:01:58;4.57;;;2.25;;
37299;SDS011;23184;51.902;12.836;2024-02-16T12:04:27;4.13;;;2.20;;
37299;SDS011;23184;51.902;12.836;2024-02-16T12:06:57;4.88;;;1.73;;
37299;SDS011;23184;51.902;12.836;2024-02-16T12:09:24;2.85;;;1.98;;
37299;SDS011;23184;51.902;12.836;2024-02-16T12:11:50;3.88;;;2.05;;
37299;SDS011;23184;51.902;12.836;2024-02-16T12:14:17;3.17;;;1.60;;
37299;SDS011;23184;51.902;12.836;2024-02-16T12:16:46;4.25;;;1.80;;
37299;SDS011;23184;51.902;12.836;2024-02-16T12:19:13;3.63;;;2.20;;
37299;SDS011;23184;51.902;12.836;2024-02-16T12:21:38;4.43;;;1.83;;
37299;SDS011;23184;51.902;12.836;2024-02-16T12:24:05;5.55;;;1.77;;
37299;SDS011;23184;51.902;12.836;2024-02-16T12:26:30;3.15;;;1.67;;
37299;SDS011;23184;51.902;12.836;2024-02-16T12:28:56;5.50;;;1.88;;
37299;SDS011;23184;51.902;12.836;2024-02-16T12:31:21;6.07;;;2.17;;
37299;SDS011;23184;51.902;12.836;2024-02-16T12:33:47;4.85;;;1.83;;
37299;SDS011;23184;51.902;12.836;2024-02-16T12:36:13;3.78;;;1.83;;
37299;SDS011;23184;51.902;12.836;2024-02-16T12:38:39;9.02;;;2.05;;
37299;SDS011;23184;51.902;12.836;2024-02-16T12:41:05;3.33;;;1.70;;
37299;SDS011;23184;51.902;12.836;2024-02-16T12:43:31;7.28;;;2.00;;
37299;SDS011;23184;51.902;12.836;2024-02-16T12:45:57;5.07;;;2.03;;
37299;SDS011;23184;51.902;12.836;2024-02-16T12:48:26;2.33;;;1.70;;
37299;SDS011;23184;51.902;12.836;2024-02-16T12:50:52;3.78;;;1.88;;
37299;SDS011;23184;51.902;12.836;2024-02-16T12:53:17;4.63;;;2.20;;
37299;SDS011;23184;51.902;12.836;2024-02-16T12:55:43;4.43;;;1.70;;
37299;SDS011;23184;51.902;12.836;2024-02-16T12:58:09;3.17;;;1.92;;
37299;SDS011;23184;51.902;12.836;2024-02-16T13:00:34;3.42;;;2.22;;
37299;SDS011;23184;51.902;12.836;2024-02-16T13:03:00;4.53;;;1.70;;
37299;SDS011;23184;51.902;12.836;2024-02-16T13:05:25;2.88;;;1.90;;
37299;SDS011;23184;51.902;12.836;2024-02-16T13:07:51;3.67;;;1.92;;
37299;SDS011;23184;51.902;12.836;2024-02-16T13:10:16;3.63;;;1.90;;
37299;SDS011;23184;51.902;12.836;2024-02-16T13:12:43;8.93;;;3.30;;
37299;SDS011;23184;51.902;12.836;2024-02-16T13:15:08;3.58;;;2.20;;
37299;SDS011;23184;51.902;12.836;2024-02-16T13:17:34;6.70;;;3.08;;
37299;SDS011;23184;51.902;12.836;2024-02-16T13:20:00;10.13;;;3.20;;
37299;SDS011;23184;51.902;12.836;2024-02-16T13:22:35;3.13;;;2.10;;
37299;SDS011;23184;51.902;12.836;2024-02-16T13:25:02;3.00;;;1.92;;
37299;SDS011;23184;51.902;12.836;2024-02-16T13:27:28;3.33;;;1.83;;
37299;SDS011;23184;51.902;12.836;2024-02-16T13:29:54;6.20;;;2.33;;
37299;SDS011;23184;51.902;12.836;2024-02-16T13:32:20;4.25;;;1.88;;
37299;SDS011;23184;51.902;12.836;2024-02-16T13:34:45;3.05;;;1.88;;
37299;SDS011;23184;51.902;12.836;2024-02-16T13:37:11;5.38;;;2.00;;
37299;SDS011;23184;51.902;12.836;2024-02-16T13:39:36;5.25;;;1.98;;
37299;SDS011;23184;51.902;12.836;2024-02-16T13:42:02;3.88;;;2.42;;
37299;SDS011;23184;51.902;12.836;2024-02-16T13:44:28;3.30;;;1.60;;
37299;SDS011;23184;51.902;12.836;2024-02-16T13:46:53;4.63;;;1.88;;
37299;SDS011;23184;51.902;12.836;2024-02-16T13:49:19;5.38;;;2.20;;
37299;SDS011;23184;51.902;12.836;2024-02-16T13:51:44;5.28;;;2.35;;
37299;SDS011;23184;51.902;12.836;2024-02-16T13:54:10;5.05;;;2.10;;
37299;SDS011;23184;51.902;12.836;2024-02-16T13:56:36;5.57;;;2.53;;
37299;SDS011;23184;51.902;12.836;2024-02-16T13:59:03;6.82;;;2.30;;
37299;SDS011;23184;51.902;12.836;2024-02-16T14:01:29;4.60;;;2.58;;
37299;SDS011;23184;51.902;12.836;2024-02-16T14:03:55;5.65;;;2.33;;
37299;SDS011;23184;51.902;12.836;2024-02-16T14:06:21;5.65;;;2.30;;
37299;SDS011;23184;51.902;12.836;2024-02-16T14:08:46;6.28;;;2.55;;
37299;SDS011;23184;51.902;12.836;2024-02-16T14:11:14;4.45;;;2.03;;
37299;SDS011;23184;51.902;12.836;2024-02-16T14:13:39;5.65;;;2.00;;